Time;durP1;ratioP1;P1;durP2;ratioP2;P2;SDS_P1;SDS_P2;PMS_P1;PMS_P2;Temp;Humidity;BMP_temperature;BMP_pressure;BME280_temperature;BME280_humidity;BME280_pressure;Samples;Min_cycle;Max_cycle;Signal;HPM_P1;HPM_P2
2021/07/13 00:00:36;;;;;;;8.60;5.90;;;;;;;-140.79;100.00;63287.88;4992672;28;20036;-74
2021/07/13 00:03:03;;;;;;;9.98;5.95;;;;;;;-140.79;100.00;63287.88;4993324;28;20058;-75
2021/07/13 00:05:28;;;;;;;8.43;6.22;;;;;;;-140.79;100.00;63287.88;4991798;28;20481;-75
2021/07/13 00:07:55;;;;;;;8.02;5.78;;;;;;;-140.79;100.00;63287.88;4992183;28;20031;-76
2021/07/13 00:10:26;;;;;;;6.78;5.85;;;;;;;-140.79;100.00;63287.88;4992183;28;20037;-76
2021/07/13 00:12:52;;;;;;;7.32;5.90;;;;;;;-140.79;100.00;63287.88;4991990;28;20026;-75
2021/07/13 00:15:21;;;;;;;8.52;5.85;;;;;;;-140.79;100.00;63287.88;4974061;28;20080;-75
2021/07/13 00:17:48;;;;;;;8.52;5.90;;;;;;;-140.79;100.00;63287.88;4991781;28;20029;-74
2021/07/13 00:20:13;;;;;;;7.07;5.85;;;;;;;-140.79;100.00;63287.88;4991909;28;20038;-75
2021/07/13 00:22:40;;;;;;;6.75;5.57;;;;;;;-140.79;100.00;63287.88;4991881;28;20069;-75
2021/07/13 00:25:05;;;;;;;6.90;5.50;;;;;;;-140.79;100.00;63287.88;4991723;28;20519;-75
2021/07/13 00:27:31;;;;;;;8.60;5.78;;;;;;;-140.79;100.00;63287.88;4996128;28;20034;-75
2021/07/13 00:29:56;;;;;;;7.85;5.68;;;;;;;-140.79;100.00;63287.88;4992836;28;20104;-74
2021/07/13 00:32:22;;;;;;;7.32;5.93;;;;;;;-140.79;100.00;63287.88;4978372;28;20037;-75
2021/07/13 00:34:47;;;;;;;8.00;6.20;;;;;;;-140.79;100.00;63287.88;4975807;28;20046;-75
2021/07/13 00:37:13;;;;;;;6.88;5.35;;;;;;;-140.79;100.00;63287.88;4990561;28;20030;-75
2021/07/13 00:39:38;;;;;;;8.30;6.20;;;;;;;-140.79;100.00;63287.88;4991710;28;20030;-75
2021/07/13 00:42:04;;;;;;;7.03;5.88;;;;;;;-140.79;100.00;63287.88;4991602;28;20025;-75
2021/07/13 00:44:29;;;;;;;6.80;5.20;;;;;;;-140.79;100.00;63287.88;4991225;28;20033;-74
2021/07/13 00:46:55;;;;;;;8.18;6.30;;;;;;;-140.79;100.00;63287.88;4990965;28;20498;-75
2021/07/13 00:49:20;;;;;;;7.97;5.63;;;;;;;-140.79;100.00;63287.88;4990937;28;20432;-75
2021/07/13 00:51:46;;;;;;;7.07;5.70;;;;;;;-140.79;100.00;63287.88;4991172;28;20026;-75
2021/07/13 00:54:11;;;;;;;8.77;5.88;;;;;;;-140.79;100.00;63287.88;4991127;28;20040;-75
2021/07/13 00:56:38;;;;;;;9.63;6.22;;;;;;;-140.79;100.00;63287.88;4991039;28;20077;-74
2021/07/13 00:59:03;;;;;;;9.10;5.57;;;;;;;-140.79;100.00;63287.88;4973348;28;20019;-75
2021/07/13 01:01:29;;;;;;;7.15;6.03;;;;;;;-140.79;100.00;63287.88;4990889;28;20413;-74
2021/07/13 01:03:56;;;;;;;9.35;6.05;;;;;;;-140.79;100.00;63287.88;4990739;28;20054;-75
2021/07/13 01:06:21;;;;;;;9.15;6.72;;;;;;;-140.79;100.00;63287.88;4988820;28;20026;-75
2021/07/13 01:08:54;;;;;;;10.15;6.57;;;;;;;-140.79;100.00;63287.88;4989483;28;20452;-75
2021/07/13 01:11:26;;;;;;;7.75;5.93;;;;;;;-140.79;100.00;63287.88;4973815;28;20041;-74
2021/07/13 01:14:09;;;;;;;7.70;5.88;;;;;;;-140.79;100.00;63287.88;4973200;28;20030;-75
2021/07/13 01:16:44;;;;;;;9.13;6.20;;;;;;;-140.79;100.00;63287.88;4973087;28;20030;-75
2021/07/13 01:19:28;;;;;;;9.48;6.18;;;;;;;-140.79;100.00;63287.88;4973273;28;20027;-75
2021/07/13 01:21:55;;;;;;;7.55;5.72;;;;;;;-140.79;100.00;63287.88;4990373;28;20606;-75
2021/07/13 01:24:48;;;;;;;6.63;5.85;;;;;;;-140.79;100.00;63287.88;4972803;28;20064;-75
2021/07/13 01:27:38;;;;;;;8.20;6.35;;;;;;;-140.79;100.00;63287.88;4990287;28;20535;-74
2021/07/13 01:30:09;;;;;;;7.20;5.53;;;;;;;-140.79;100.00;63287.88;4991520;28;20037;-74
2021/07/13 01:32:35;;;;;;;9.38;6.25;;;;;;;-140.79;100.00;63287.88;4990678;28;20034;-75
2021/07/13 01:35:02;;;;;;;7.45;5.90;;;;;;;-140.79;100.00;63287.88;4974366;28;20037;-75
2021/07/13 01:37:28;;;;;;;6.95;5.75;;;;;;;-140.79;100.00;63287.88;4974227;28;20034;-75
2021/07/13 01:39:54;;;;;;;9.65;6.50;;;;;;;-140.79;100.00;63287.88;4973996;28;20022;-75
2021/07/13 01:42:19;;;;;;;9.55;6.40;;;;;;;-140.79;100.00;63287.88;4974128;28;20038;-78
2021/07/13 01:44:45;;;;;;;11.07;6.35;;;;;;;-140.79;100.00;63287.88;4989095;28;20039;-74
2021/07/13 01:47:10;;;;;;;9.50;6.63;;;;;;;-140.79;100.00;63287.88;4972642;28;20038;-75
2021/07/13 01:49:36;;;;;;;7.53;6.20;;;;;;;-140.79;100.00;63287.88;4972795;28;20030;-75
2021/07/13 01:52:01;;;;;;;7.03;6.03;;;;;;;-140.79;100.00;63287.88;4972355;28;20022;-75
2021/07/13 01:54:27;;;;;;;7.93;6.00;;;;;;;-140.79;100.00;63287.88;4972582;28;20053;-75
2021/07/13 01:56:55;;;;;;;8.60;6.07;;;;;;;-140.79;100.00;63287.88;4972392;28;20030;-74
2021/07/13 01:59:21;;;;;;;7.95;5.72;;;;;;;-140.79;100.00;63287.88;4971943;28;20038;-74
2021/07/13 02:01:46;;;;;;;8.63;5.90;;;;;;;-140.79;100.00;63287.88;4989848;28;20038;-75
2021/07/13 02:04:12;;;;;;;7.70;6.55;;;;;;;-140.79;100.00;63287.88;4972227;28;20141;-75
2021/07/13 02:06:37;;;;;;;8.05;5.90;;;;;;;-140.79;100.00;63287.88;4989550;28;20030;-75
2021/07/13 02:09:06;;;;;;;8.25;6.60;;;;;;;-140.79;100.00;63287.88;4988150;28;20034;-75
2021/07/13 02:11:31;;;;;;;8.38;6.07;;;;;;;-140.79;100.00;63287.88;4989538;28;20037;-75
2021/07/13 02:13:56;;;;;;;7.15;5.47;;;;;;;-140.79;100.00;63287.88;4971766;28;20034;-75
2021/07/13 02:16:22;;;;;;;8.38;6.00;;;;;;;-140.79;100.00;63287.88;4989170;28;20030;-75
2021/07/13 02:18:48;;;;;;;6.68;5.78;;;;;;;-140.79;100.00;63287.88;4988902;28;20030;-75
2021/07/13 02:21:14;;;;;;;6.72;5.97;;;;;;;-140.79;100.00;63287.88;4989461;28;20033;-75
2021/07/13 02:23:40;;;;;;;10.60;6.15;;;;;;;-140.79;100.00;63287.88;4989103;28;20030;-75
2021/07/13 02:26:06;;;;;;;9.35;5.97;;;;;;;-140.79;100.00;63287.88;4971951;28;20084;-75
2021/07/13 02:28:33;;;;;;;8.48;6.32;;;;;;;-140.79;100.00;63287.88;4971388;28;20065;-75
2021/07/13 02:31:14;;;;;;;8.35;5.70;;;;;;;-140.79;100.00;63287.88;4971513;28;20393;-75
2021/07/13 02:34:07;;;;;;;9.13;6.65;;;;;;;-140.79;100.00;63287.88;4971743;28;20040;-75
2021/07/13 02:36:38;;;;;;;7.57;6.15;;;;;;;-140.79;100.00;63287.88;4973181;28;20026;-74
2021/07/13 02:39:17;;;;;;;7.68;5.80;;;;;;;-140.79;100.00;63287.88;4972190;28;20469;-75
2021/07/13 02:41:43;;;;;;;7.60;5.82;;;;;;;-140.79;100.00;63287.88;4956882;28;20038;-75
2021/07/13 02:44:09;;;;;;;8.02;6.20;;;;;;;-140.79;100.00;63287.88;4987831;28;20460;-75
2021/07/13 02:46:43;;;;;;;9.40;6.07;;;;;;;-140.79;100.00;63287.88;4988928;28;20060;-75
2021/07/13 02:49:20;;;;;;;8.25;6.50;;;;;;;-140.79;100.00;63287.88;4987207;28;20034;-75
2021/07/13 02:51:45;;;;;;;7.15;6.40;;;;;;;-140.79;100.00;63287.88;4988744;28;20037;-75
2021/07/13 02:54:11;;;;;;;9.00;6.00;;;;;;;-140.79;100.00;63287.88;4971523;28;20022;-75
2021/07/13 02:56:38;;;;;;;7.60;6.38;;;;;;;-140.79;100.00;63287.88;4988829;28;20030;-75
2021/07/13 02:59:03;;;;;;;6.85;5.70;;;;;;;-140.79;100.00;63287.88;4971107;28;20032;-75
2021/07/13 03:01:29;;;;;;;7.43;5.97;;;;;;;-140.79;100.00;63287.88;4971255;28;20014;-75
2021/07/13 03:03:54;;;;;;;8.07;6.03;;;;;;;-140.79;100.00;63287.88;4988539;28;20146;-75
2021/07/13 03:06:20;;;;;;;6.88;5.95;;;;;;;-140.79;100.00;63287.88;4971051;28;20038;-75
2021/07/13 03:08:46;;;;;;;7.55;5.72;;;;;;;-140.79;100.00;63287.88;4970803;28;20038;-75
2021/07/13 03:11:11;;;;;;;9.18;5.90;;;;;;;-140.79;100.00;63287.88;4971063;28;20038;-75
2021/07/13 03:13:36;;;;;;;8.57;6.05;;;;;;;-140.79;100.00;63287.88;4971259;28;20034;-75
2021/07/13 03:16:02;;;;;;;7.55;5.68;;;;;;;-140.79;100.00;63287.88;4989011;28;20038;-76
2021/07/13 03:18:28;;;;;;;8.65;6.20;;;;;;;-140.79;100.00;63287.88;4970909;28;20041;-75
2021/07/13 03:20:54;;;;;;;7.80;6.00;;;;;;;-140.79;100.00;63287.88;4988716;28;20058;-76
2021/07/13 03:23:19;;;;;;;6.40;5.60;;;;;;;-140.79;100.00;63287.88;4971353;28;20026;-75
2021/07/13 03:25:54;;;;;;;8.15;6.20;;;;;;;-140.79;100.00;63287.88;4971636;28;20065;-75
2021/07/13 03:28:19;;;;;;;9.20;5.75;;;;;;;-140.79;100.00;63287.88;4970554;28;20508;-75
2021/07/13 03:30:45;;;;;;;8.23;5.95;;;;;;;-140.79;100.00;63287.88;4987894;28;20026;-75
2021/07/13 03:33:10;;;;;;;6.75;5.57;;;;;;;-140.79;100.00;63287.88;4970823;28;20027;-75
2021/07/13 03:35:36;;;;;;;7.90;6.35;;;;;;;-140.79;100.00;63287.88;4970790;28;20441;-75
2021/07/13 03:38:02;;;;;;;9.05;6.28;;;;;;;-140.79;100.00;63287.88;4986472;28;20027;-75
2021/07/13 03:40:28;;;;;;;7.78;5.70;;;;;;;-140.79;100.00;63287.88;4970963;28;20037;-75
2021/07/13 03:42:53;;;;;;;9.05;6.00;;;;;;;-140.79;100.00;63287.88;4988256;28;20026;-75
2021/07/13 03:45:19;;;;;;;9.63;6.18;;;;;;;-140.79;100.00;63287.88;4988133;28;20184;-75
2021/07/13 03:47:49;;;;;;;8.13;5.75;;;;;;;-140.79;100.00;63287.88;4988180;28;20107;-75
2021/07/13 03:50:19;;;;;;;7.32;6.15;;;;;;;-140.79;100.00;63287.88;4988175;28;20081;-75
2021/07/13 03:52:44;;;;;;;7.50;5.68;;;;;;;-140.79;100.00;63287.88;4988320;28;20022;-75
2021/07/13 03:55:11;;;;;;;9.10;6.53;;;;;;;-140.79;100.00;63287.88;4986951;28;20428;-75
2021/07/13 03:57:36;;;;;;;8.65;6.47;;;;;;;-140.79;100.00;63287.88;4987987;28;20540;-75
2021/07/13 04:00:05;;;;;;;8.65;6.00;;;;;;;-140.79;100.00;63287.88;4987624;28;20030;-75
2021/07/13 04:02:30;;;;;;;9.43;6.85;;;;;;;-140.79;100.00;63287.88;4987920;28;20524;-75
2021/07/13 04:04:56;;;;;;;7.10;5.97;;;;;;;-140.79;100.00;63287.88;4970840;28;20071;-75
2021/07/13 04:07:21;;;;;;;7.53;5.90;;;;;;;-140.79;100.00;63287.88;4987641;28;20026;-75
2021/07/13 04:09:46;;;;;;;9.18;5.95;;;;;;;-140.79;100.00;63287.88;4970305;28;20088;-75
2021/07/13 04:12:18;;;;;;;8.45;6.00;;;;;;;-140.79;100.00;63287.88;4988182;28;20034;-75
2021/07/13 04:14:44;;;;;;;9.73;6.45;;;;;;;-140.79;100.00;63287.88;4955863;28;20048;-75
2021/07/13 04:17:10;;;;;;;11.00;6.35;;;;;;;-140.79;100.00;63287.88;4988167;28;20022;-75
2021/07/13 04:19:35;;;;;;;8.23;6.22;;;;;;;-140.79;100.00;63287.88;4987239;28;20413;-75
2021/07/13 04:22:01;;;;;;;7.55;6.60;;;;;;;-140.79;100.00;63287.88;4987752;28;20030;-76
2021/07/13 04:24:26;;;;;;;9.05;6.10;;;;;;;-140.79;100.00;63287.88;4984091;28;20030;-76
2021/07/13 04:26:52;;;;;;;8.23;6.40;;;;;;;-140.79;100.00;63287.88;4961731;28;20023;-79
2021/07/13 04:29:17;;;;;;;8.27;6.32;;;;;;;-140.79;100.00;63287.88;4968333;28;20034;-76
2021/07/13 04:31:43;;;;;;;9.27;6.78;;;;;;;-140.79;100.00;63287.88;4964020;28;20026;-75
2021/07/13 04:34:09;;;;;;;8.77;6.18;;;;;;;-140.79;100.00;63287.88;4983775;28;20022;-76
2021/07/13 04:36:36;;;;;;;8.05;6.22;;;;;;;-140.79;100.00;63287.88;4987225;28;20417;-77
2021/07/13 04:39:03;;;;;;;9.30;6.55;;;;;;;-140.79;100.00;63287.88;4952963;28;20498;-77
2021/07/13 04:41:28;;;;;;;9.43;6.50;;;;;;;-140.79;100.00;63287.88;4987933;28;20538;-75
2021/07/13 04:43:54;;;;;;;11.13;6.20;;;;;;;-140.79;100.00;63287.88;4990232;28;20022;-76
2021/07/13 04:46:19;;;;;;;11.40;6.43;;;;;;;-140.79;100.00;63287.88;4970179;28;20018;-75
2021/07/13 04:48:45;;;;;;;13.43;7.00;;;;;;;-140.79;100.00;63287.88;4987729;28;20030;-74
2021/07/13 04:51:10;;;;;;;10.18;6.35;;;;;;;-140.79;100.00;63287.88;4972702;28;20064;-75
2021/07/13 04:53:36;;;;;;;9.98;7.50;;;;;;;-140.79;100.00;63287.88;4990236;28;20022;-73
2021/07/13 04:56:01;;;;;;;12.60;7.68;;;;;;;-140.79;100.00;63287.88;4986412;28;20046;-73
2021/07/13 04:58:27;;;;;;;9.30;7.40;;;;;;;-140.79;100.00;63287.88;4990307;28;20026;-72
2021/07/13 05:00:52;;;;;;;11.60;7.47;;;;;;;-140.79;100.00;63287.88;4982555;28;20046;-75
2021/07/13 05:03:18;;;;;;;9.57;7.75;;;;;;;-140.79;100.00;63287.88;4989400;28;20054;-74
2021/07/13 05:05:43;;;;;;;12.07;8.00;;;;;;;-140.79;100.00;63287.88;4985224;28;20022;-71
2021/07/13 05:08:09;;;;;;;12.00;7.63;;;;;;;-140.79;100.00;63287.88;4989886;28;20022;-72
2021/07/13 05:10:34;;;;;;;8.40;7.35;;;;;;;-140.79;100.00;63287.88;4986429;28;20026;-74
2021/07/13 05:13:00;;;;;;;10.98;8.13;;;;;;;-140.79;100.00;63287.88;4990672;28;20022;-73
2021/07/13 05:15:25;;;;;;;9.10;7.70;;;;;;;-140.79;100.00;63287.88;4986413;28;20038;-73
2021/07/13 05:17:51;;;;;;;8.60;7.47;;;;;;;-140.79;100.00;63287.88;4988647;28;20453;-73
2021/07/13 05:20:16;;;;;;;10.80;7.78;;;;;;;-140.79;100.00;63287.88;4985681;28;20034;-71
2021/07/13 05:22:42;;;;;;;10.55;8.00;;;;;;;-140.79;100.00;63287.88;4988772;28;20034;-74
2021/07/13 05:25:09;;;;;;;11.60;8.02;;;;;;;-140.79;100.00;63287.88;4987475;28;20468;-73
2021/07/13 05:27:41;;;;;;;10.77;7.43;;;;;;;-140.79;100.00;63287.88;4989178;28;20042;-73
2021/07/13 05:30:09;;;;;;;9.70;7.30;;;;;;;-140.79;100.00;63287.88;4978602;28;20109;-72
2021/07/13 05:32:35;;;;;;;10.82;7.68;;;;;;;-140.79;100.00;63287.88;4988334;28;20030;-73
2021/07/13 05:35:00;;;;;;;14.60;7.53;;;;;;;-140.79;100.00;63287.88;4984741;28;20389;-72
2021/07/13 05:37:26;;;;;;;13.13;8.10;;;;;;;-140.79;100.00;63287.88;4980468;28;20033;-74
2021/07/13 05:39:51;;;;;;;12.30;7.97;;;;;;;-140.79;100.00;63287.88;4966631;28;20033;-74
2021/07/13 05:42:17;;;;;;;11.27;7.97;;;;;;;-140.79;100.00;63287.88;4987928;28;20387;-74
2021/07/13 05:44:42;;;;;;;12.52;7.55;;;;;;;-140.79;100.00;63287.88;4987390;28;20045;-74
2021/07/13 05:47:07;;;;;;;12.48;7.97;;;;;;;-140.79;100.00;63287.88;4988985;28;20050;-75
2021/07/13 05:49:33;;;;;;;15.50;8.25;;;;;;;-140.79;100.00;63287.88;4988088;28;20030;-74
2021/07/13 05:51:58;;;;;;;12.63;7.97;;;;;;;-140.79;100.00;63287.88;4932359;28;20055;-74
2021/07/13 05:54:24;;;;;;;10.50;7.60;;;;;;;-140.79;100.00;63287.88;4981974;28;20034;-74
2021/07/13 05:56:49;;;;;;;11.77;8.52;;;;;;;-140.79;100.00;63287.88;4974380;28;20037;-85
2021/07/13 05:59:15;;;;;;;11.43;8.10;;;;;;;-140.79;100.00;63287.88;4956896;28;20061;-80
2021/07/13 06:01:40;;;;;;;15.90;8.52;;;;;;;-140.79;100.00;63287.88;4989965;28;20030;-82
2021/07/13 06:04:06;;;;;;;12.18;7.82;;;;;;;-140.79;100.00;63287.88;4988861;28;20057;-78
2021/07/13 06:06:31;;;;;;;16.05;8.13;;;;;;;-140.79;100.00;63287.88;4988110;28;20022;-77
2021/07/13 06:08:57;;;;;;;10.68;7.68;;;;;;;-140.79;100.00;63287.88;4985200;28;20041;-74
2021/07/13 06:11:22;;;;;;;9.77;7.15;;;;;;;-140.79;100.00;63287.88;4981498;28;20113;-75
2021/07/13 06:13:48;;;;;;;11.40;7.47;;;;;;;-140.79;100.00;63287.88;4989318;28;20037;-75
2021/07/13 06:16:13;;;;;;;12.23;7.50;;;;;;;-140.79;100.00;63287.88;4988849;28;20037;-79
2021/07/13 06:18:38;;;;;;;8.98;7.22;;;;;;;-140.79;100.00;63287.88;4985893;28;20022;-79
2021/07/13 06:21:05;;;;;;;11.15;7.32;;;;;;;-140.79;100.00;63287.88;4982919;28;20030;-80
2021/07/13 06:23:31;;;;;;;9.13;6.55;;;;;;;-140.79;100.00;63287.88;4991192;28;20025;-80
2021/07/13 06:25:56;;;;;;;9.02;7.10;;;;;;;-140.79;100.00;63287.88;4989366;28;20088;-79
2021/07/13 06:28:22;;;;;;;10.40;6.78;;;;;;;-140.79;100.00;63287.88;4971496;28;20037;-79
2021/07/13 06:30:47;;;;;;;9.70;6.78;;;;;;;-140.79;100.00;63287.88;4970564;28;20030;-80
2021/07/13 06:33:12;;;;;;;10.13;6.90;;;;;;;-140.79;100.00;63287.88;4977472;28;20034;-80
2021/07/13 06:35:38;;;;;;;9.02;6.68;;;;;;;-140.79;100.00;63287.88;4970792;28;20018;-78
2021/07/13 06:38:05;;;;;;;8.38;6.30;;;;;;;-140.79;100.00;63287.88;4972922;28;20025;-78
2021/07/13 06:40:31;;;;;;;9.20;6.38;;;;;;;-140.79;100.00;63287.88;4986698;28;20022;-78
2021/07/13 06:42:56;;;;;;;9.32;6.80;;;;;;;-140.79;100.00;63287.88;4973499;28;20033;-77
2021/07/13 06:45:22;;;;;;;8.52;6.18;;;;;;;-140.79;100.00;63287.88;4984336;28;20042;-79
2021/07/13 06:47:53;;;;;;;8.30;6.30;;;;;;;-140.79;100.00;63287.88;4990480;28;20027;-78
2021/07/13 06:50:18;;;;;;;9.02;6.43;;;;;;;-140.79;100.00;63287.88;4985520;28;20124;-78
2021/07/13 06:52:44;;;;;;;8.30;6.70;;;;;;;-140.79;100.00;63287.88;4990753;28;20030;-78
2021/07/13 06:55:10;;;;;;;7.72;5.78;;;;;;;-140.79;100.00;63287.88;4984355;28;20416;-77
2021/07/13 06:57:36;;;;;;;9.02;5.75;;;;;;;-140.79;100.00;63287.88;4983810;28;20470;-78
2021/07/13 07:00:02;;;;;;;7.50;5.97;;;;;;;-140.79;100.00;63287.88;4987735;28;20051;-78
2021/07/13 07:02:27;;;;;;;6.68;5.55;;;;;;;-140.79;100.00;63287.88;4989029;28;20477;-78
2021/07/13 07:04:53;;;;;;;7.20;5.50;;;;;;;-140.79;100.00;63287.88;4985175;28;20086;-78
2021/07/13 07:07:18;;;;;;;7.88;5.85;;;;;;;-140.79;100.00;63287.88;4969906;28;20419;-77
2021/07/13 07:09:44;;;;;;;6.70;5.45;;;;;;;-140.79;100.00;63287.88;4969544;28;20435;-78
2021/07/13 07:12:09;;;;;;;9.15;5.60;;;;;;;-140.79;100.00;63287.88;4984346;28;20101;-80
2021/07/13 07:14:35;;;;;;;7.72;5.60;;;;;;;-140.79;100.00;63287.88;4986884;28;20045;-78
2021/07/13 07:17:00;;;;;;;6.53;5.43;;;;;;;-140.79;100.00;63287.88;4990019;28;20030;-78
2021/07/13 07:19:25;;;;;;;7.78;5.53;;;;;;;-140.79;100.00;63287.88;4984197;28;20449;-79
2021/07/13 07:21:51;;;;;;;7.40;5.40;;;;;;;-140.79;100.00;63287.88;4988609;28;20477;-79
2021/07/13 07:24:16;;;;;;;7.43;5.75;;;;;;;-140.79;100.00;63287.88;4987532;28;20030;-78
2021/07/13 07:26:42;;;;;;;6.95;5.45;;;;;;;-140.79;100.00;63287.88;4989638;28;20097;-77
2021/07/13 07:29:08;;;;;;;6.78;5.63;;;;;;;-140.79;100.00;63287.88;4984892;28;20026;-77
2021/07/13 07:31:33;;;;;;;6.65;5.50;;;;;;;-140.79;100.00;63287.88;4986562;28;20026;-78
2021/07/13 07:33:58;;;;;;;6.65;5.25;;;;;;;-140.79;100.00;63287.88;4984518;28;20030;-79
2021/07/13 07:36:26;;;;;;;9.57;5.50;;;;;;;-140.79;100.00;63287.88;4988416;28;20030;-78
2021/07/13 07:38:52;;;;;;;7.40;5.15;;;;;;;-140.79;100.00;63287.88;4987265;28;20756;-78
2021/07/13 07:41:17;;;;;;;8.40;5.45;;;;;;;-140.79;100.00;63287.88;4984732;28;20046;-79
2021/07/13 07:43:43;;;;;;;6.40;5.15;;;;;;;-140.79;100.00;63287.88;4989118;28;20049;-78
2021/07/13 07:46:08;;;;;;;7.20;5.60;;;;;;;-140.79;100.00;63287.88;4986964;28;20033;-78
2021/07/13 07:48:34;;;;;;;6.35;5.15;;;;;;;-140.79;100.00;63287.88;4988431;28;20030;-78
2021/07/13 07:50:59;;;;;;;6.53;5.00;;;;;;;-140.79;100.00;63287.88;4973138;28;20038;-77
2021/07/13 07:53:25;;;;;;;6.43;5.30;;;;;;;-140.79;100.00;63287.88;4978982;28;20035;-78
2021/07/13 07:55:50;;;;;;;6.80;4.75;;;;;;;-140.79;100.00;63287.88;4987875;28;20085;-78
2021/07/13 07:58:16;;;;;;;6.50;5.38;;;;;;;-140.79;100.00;63287.88;4985273;28;20098;-78
2021/07/13 08:00:41;;;;;;;6.47;5.07;;;;;;;-140.79;100.00;63287.88;4989147;28;20038;-77
2021/07/13 08:03:07;;;;;;;6.50;4.97;;;;;;;-140.79;100.00;63287.88;4980904;28;20057;-79
2021/07/13 08:05:32;;;;;;;6.63;4.78;;;;;;;-140.79;100.00;63287.88;4987272;28;20034;-78
2021/07/13 08:07:58;;;;;;;7.22;5.40;;;;;;;-140.79;100.00;63287.88;4986946;28;20046;-78
2021/07/13 08:10:23;;;;;;;6.68;4.88;;;;;;;-140.79;100.00;63287.88;4985085;28;20022;-77
2021/07/13 08:12:49;;;;;;;6.70;4.93;;;;;;;-140.79;100.00;63287.88;4986325;28;20038;-78
2021/07/13 08:15:15;;;;;;;5.72;4.60;;;;;;;-140.79;100.00;63287.88;4980142;28;20040;-79
2021/07/13 08:17:41;;;;;;;6.25;4.95;;;;;;;-140.79;100.00;63287.88;4984230;28;20498;-77
2021/07/13 08:20:09;;;;;;;6.00;4.78;;;;;;;-140.79;100.00;63287.88;4983753;28;20045;-79
2021/07/13 08:22:35;;;;;;;5.22;4.25;;;;;;;-140.79;100.00;63287.88;4975501;28;20038;-79
2021/07/13 08:25:01;;;;;;;5.55;4.60;;;;;;;-140.79;100.00;63287.88;4972879;28;20089;-79
2021/07/13 08:27:28;;;;;;;6.85;4.53;;;;;;;-140.79;100.00;63287.88;4993083;28;20037;-78
2021/07/13 08:29:53;;;;;;;6.72;4.88;;;;;;;-140.79;100.00;63287.88;4993183;28;20428;-79
2021/07/13 08:32:19;;;;;;;6.22;4.90;;;;;;;-140.79;100.00;63287.88;4992953;28;20030;-76
2021/07/13 08:34:44;;;;;;;5.68;4.63;;;;;;;-140.79;100.00;63287.88;4993106;28;20026;-78
2021/07/13 08:37:10;;;;;;;6.95;4.68;;;;;;;-140.79;100.00;63287.88;4993139;28;20034;-79
2021/07/13 08:39:35;;;;;;;5.68;4.72;;;;;;;-140.79;100.00;63287.88;4974453;28;20477;-78
2021/07/13 08:42:03;;;;;;;5.18;4.63;;;;;;;-140.79;100.00;63287.88;4974336;28;20543;-78
2021/07/13 08:44:30;;;;;;;5.55;4.43;;;;;;;-140.79;100.00;63287.88;4991598;28;20038;-78
2021/07/13 08:46:55;;;;;;;5.65;4.63;;;;;;;-140.79;100.00;63287.88;4991879;28;20559;-79
2021/07/13 08:49:21;;;;;;;5.18;4.20;;;;;;;-140.79;100.00;63287.88;4992906;28;20034;-79
2021/07/13 08:51:47;;;;;;;6.28;4.70;;;;;;;-140.79;100.00;63287.88;4976686;28;20030;-79
2021/07/13 08:54:13;;;;;;;5.78;4.38;;;;;;;-140.79;100.00;63287.88;4973344;28;20420;-78
2021/07/13 08:56:38;;;;;;;4.85;4.35;;;;;;;-140.79;100.00;63287.88;4978018;28;20038;-78
2021/07/13 08:59:04;;;;;;;6.22;4.60;;;;;;;-140.79;100.00;63287.88;4992566;28;20109;-77
2021/07/13 09:01:30;;;;;;;5.40;4.50;;;;;;;-140.79;100.00;63287.88;5004125;28;20022;-80
2021/07/13 09:04:02;;;;;;;7.13;4.72;;;;;;;-140.79;100.00;63287.88;5001559;28;20055;-79
2021/07/13 09:06:28;;;;;;;5.53;4.85;;;;;;;-140.79;100.00;63287.88;4997429;28;20032;-76
2021/07/13 09:08:53;;;;;;;6.13;4.40;;;;;;;-140.79;100.00;63287.88;4981825;28;20026;-77
2021/07/13 09:11:22;;;;;;;6.32;4.70;;;;;;;-140.79;100.00;63287.88;4996077;28;20030;-75
2021/07/13 09:13:52;;;;;;;6.47;5.00;;;;;;;-140.79;100.00;63287.88;4987619;28;20555;-76
2021/07/13 09:16:21;;;;;;;6.40;4.57;;;;;;;-140.79;100.00;63287.88;4993356;28;20037;-79
2021/07/13 09:18:51;;;;;;;5.00;4.50;;;;;;;-140.79;100.00;63287.88;4990856;28;20042;-77
2021/07/13 09:21:33;;;;;;;7.18;4.93;;;;;;;-140.79;100.00;63287.88;4992336;28;20120;-77
2021/07/13 09:24:09;;;;;;;6.28;4.75;;;;;;;-140.79;100.00;63287.88;4989210;28;20038;-76
2021/07/13 09:26:53;;;;;;;7.13;5.45;;;;;;;-140.79;100.00;63287.88;4989786;28;20038;-74
2021/07/13 09:29:44;;;;;;;8.18;5.10;;;;;;;-140.79;100.00;63287.88;4986807;28;20046;-74
2021/07/13 09:32:32;;;;;;;8.73;5.45;;;;;;;-140.79;100.00;63287.88;4990774;28;20072;-76
2021/07/13 09:34:58;;;;;;;6.57;5.05;;;;;;;-140.79;100.00;63287.88;4990047;28;20038;-76
2021/07/13 09:37:49;;;;;;;6.75;5.03;;;;;;;-140.79;100.00;63287.88;4991480;28;20026;-76
2021/07/13 09:40:18;;;;;;;6.65;5.28;;;;;;;-140.79;100.00;63287.88;4967948;28;20050;-76
2021/07/13 09:42:46;;;;;;;6.72;5.43;;;;;;;-140.79;100.00;63287.88;4991788;28;20061;-77
2021/07/13 09:45:15;;;;;;;7.32;5.10;;;;;;;-140.79;100.00;63287.88;4979823;28;20591;-77
2021/07/13 09:47:41;;;;;;;7.03;5.13;;;;;;;-140.79;100.00;63287.88;4991271;28;20171;-77
2021/07/13 09:50:08;;;;;;;8.88;5.45;;;;;;;-140.79;100.00;63287.88;4984139;28;20063;-76
2021/07/13 09:52:33;;;;;;;6.40;5.07;;;;;;;-140.79;100.00;63287.88;4992247;28;20040;-77
2021/07/13 09:55:00;;;;;;;6.78;5.40;;;;;;;-140.79;100.00;63287.88;4972963;28;20409;-77
2021/07/13 09:57:28;;;;;;;7.35;5.30;;;;;;;-140.79;100.00;63287.88;4990205;28;20121;-74
2021/07/13 09:59:56;;;;;;;6.72;5.75;;;;;;;-140.79;100.00;63287.88;4970724;28;21657;-76
2021/07/13 10:02:25;;;;;;;7.13;4.75;;;;;;;-140.79;100.00;63287.88;4989644;28;20197;-74
2021/07/13 10:04:51;;;;;;;6.45;5.03;;;;;;;-140.79;100.00;63287.88;4983732;28;20052;-76
2021/07/13 10:07:18;;;;;;;6.45;4.72;;;;;;;-140.79;100.00;63287.88;4988501;28;20489;-75
2021/07/13 10:09:47;;;;;;;6.57;4.93;;;;;;;-140.79;100.00;63287.88;4966380;28;20117;-74
2021/07/13 10:12:16;;;;;;;5.75;4.90;;;;;;;-140.79;100.00;63287.88;4988762;28;20026;-75
2021/07/13 10:14:42;;;;;;;;;;;;;;;-140.79;100.00;63287.88;4979046;28;20043;-75
2021/07/13 10:17:08;;;;;;;5.82;4.93;;;;;;;-140.79;100.00;63287.88;4987097;28;19928;-75
2021/07/13 10:19:35;;;;;;;7.22;5.50;;;;;;;-140.79;100.00;63287.88;4984174;28;20034;-75
2021/07/13 10:22:04;;;;;;;6.80;4.93;;;;;;;-140.79;100.00;63287.88;4986914;28;20030;-75
2021/07/13 10:24:30;;;;;;;6.50;4.87;;;;;;;-140.79;100.00;63287.88;4952077;28;20045;-74
2021/07/13 10:26:56;;;;;;;5.60;4.68;;;;;;;-140.79;100.00;63287.88;4985250;28;20030;-76
2021/07/13 10:29:40;;;;;;;7.03;5.15;;;;;;;-140.79;100.00;63287.88;4984631;28;20060;-75
2021/07/13 10:32:18;;;;;;;6.20;4.53;;;;;;;-140.79;100.00;63287.88;4985838;28;20038;-76
2021/07/13 10:34:55;;;;;;;5.32;4.63;;;;;;;-140.79;100.00;63287.88;4980356;28;20536;-77
2021/07/13 10:37:41;;;;;;;5.40;4.45;;;;;;;-140.79;100.00;63287.88;4984122;28;20050;-77
2021/07/13 10:40:07;;;;;;;5.45;4.72;;;;;;;-140.79;100.00;63287.88;4949392;28;20054;-77
2021/07/13 10:43:00;;;;;;;5.82;4.70;;;;;;;-140.79;100.00;63287.88;4981091;28;20429;-76
2021/07/13 10:45:35;;;;;;;5.43;4.75;;;;;;;-140.79;100.00;63287.88;4981676;28;20078;-77
2021/07/13 10:48:03;;;;;;;6.63;4.50;;;;;;;-140.79;100.00;63287.88;4987858;28;20030;-77
2021/07/13 10:50:29;;;;;;;4.95;4.45;;;;;;;-140.79;100.00;63287.88;4969284;28;20025;-76
2021/07/13 10:53:02;;;;;;;6.25;5.50;;;;;;;-140.79;100.00;63287.88;4988335;28;20125;-77
2021/07/13 10:55:31;;;;;;;5.55;4.75;;;;;;;-140.79;100.00;63287.88;4986437;28;20030;-77
2021/07/13 10:58:11;;;;;;;6.50;4.93;;;;;;;-140.79;100.00;63287.88;4988212;28;20061;-77
2021/07/13 11:00:58;;;;;;;5.50;4.88;;;;;;;-140.79;100.00;63287.88;4982444;28;20030;-77
2021/07/13 11:03:27;;;;;;;5.00;4.40;;;;;;;-140.79;100.00;63287.88;4987313;28;20157;-77
2021/07/13 11:06:02;;;;;;;4.95;4.45;;;;;;;-140.79;100.00;63287.88;4989311;28;20026;-77
2021/07/13 11:08:46;;;;;;;5.65;4.70;;;;;;;-140.79;100.00;63287.88;4987279;28;20516;-77
2021/07/13 11:11:18;;;;;;;7.05;4.75;;;;;;;-140.79;100.00;63287.88;4980485;28;20505;-77